Time;durP1;ratioP1;P1;durP2;ratioP2;P2;SDS_P1;SDS_P2;PMS_P1;PMS_P2;Temp;Humidity;BMP_temperature;BMP_pressure;BME280_temperature;BME280_humidity;BME280_pressure;Samples;Min_cycle;Max_cycle;Signal;HPM_P1;HPM_P2
2021/10/26 00:01:46;;;;;;;30.00;15.40;;;;;;;5.40;73.77;100978.63;1776967;80;21066;-76
2021/10/26 00:04:12;;;;;;;31.80;15.98;;;;;;;5.33;73.73;100978.75;1776808;80;21047;-75
2021/10/26 00:06:38;;;;;;;34.45;15.48;;;;;;;5.23;73.71;100975.64;1776905;80;20992;-75
2021/10/26 00:09:05;;;;;;;30.40;15.88;;;;;;;5.12;73.73;100976.48;1756670;80;21883;-75
2021/10/26 00:11:32;;;;;;;29.42;15.70;;;;;;;5.02;73.70;100971.56;1745902;81;21019;-75
2021/10/26 00:13:58;;;;;;;34.33;17.95;;;;;;;4.93;73.72;100979.72;1744997;82;21105;-75
2021/10/26 00:16:25;;;;;;;40.15;16.52;;;;;;;4.84;73.69;100984.89;1745749;82;21049;-75
2021/10/26 00:18:51;;;;;;;42.48;16.17;;;;;;;4.81;73.69;100986.45;1746549;82;21014;-76
2021/10/26 00:21:17;;;;;;;36.98;15.05;;;;;;;4.83;73.66;100979.23;1752745;80;21059;-75
2021/10/26 00:23:43;;;;;;;39.60;15.30;;;;;;;4.91;73.62;100972.88;1775539;80;21011;-75
2021/10/26 00:26:09;;;;;;;32.63;13.95;;;;;;;5.01;73.58;100976.48;1776989;80;21043;-75
2021/10/26 00:28:35;;;;;;;38.60;13.45;;;;;;;5.09;73.50;100968.80;1777102;80;21515;-76
2021/10/26 00:31:02;;;;;;;33.08;13.40;;;;;;;5.17;73.46;100971.69;1776489;80;21900;-75
2021/10/26 00:33:29;;;;;;;33.10;12.95;;;;;;;5.22;73.40;100978.76;1776554;80;21038;-75
2021/10/26 00:35:55;;;;;;;30.20;13.53;;;;;;;5.26;73.38;100977.56;1776935;80;20987;-75
2021/10/26 00:38:21;;;;;;;26.90;12.88;;;;;;;5.34;73.32;100972.52;1777098;80;21527;-75
2021/10/26 00:40:47;;;;;;;32.45;12.30;;;;;;;5.46;73.25;100980.77;1776749;80;21038;-75
2021/10/26 00:43:13;;;;;;;30.40;12.80;;;;;;;5.58;73.19;100972.81;1776813;80;21625;-75
2021/10/26 00:45:39;;;;;;;27.27;11.55;;;;;;;5.62;73.11;100968.97;1777224;80;21855;-75
2021/10/26 00:48:06;;;;;;;31.42;12.93;;;;;;;5.64;73.08;100960.41;1776851;80;20888;-75
2021/10/26 00:50:32;;;;;;;29.77;13.22;;;;;;;5.68;73.00;100966.66;1776853;80;21070;-75
2021/10/26 00:52:58;;;;;;;29.02;12.70;;;;;;;5.71;72.94;100965.55;1776629;80;21301;-75
2021/10/26 00:55:25;;;;;;;27.60;11.95;;;;;;;5.73;72.90;100964.97;1777093;80;21062;-75
2021/10/26 00:57:51;;;;;;;25.08;12.10;;;;;;;5.72;72.82;100964.12;1776728;80;21224;-75
2021/10/26 01:00:18;;;;;;;22.98;11.30;;;;;;;5.73;72.74;100965.81;1769477;80;21085;-76
2021/10/26 01:02:45;;;;;;;24.32;11.78;;;;;;;5.77;72.69;100971.70;1777362;80;20979;-75
2021/10/26 01:05:11;;;;;;;22.75;11.25;;;;;;;5.80;72.59;100963.50;1777730;80;20984;-75
2021/10/26 01:07:37;;;;;;;29.92;13.08;;;;;;;5.83;72.51;100964.57;1726852;80;21066;-75
2021/10/26 01:10:04;;;;;;;27.07;12.78;;;;;;;5.85;72.44;100963.47;1723563;82;21507;-75
2021/10/26 01:12:30;;;;;;;21.45;11.55;;;;;;;5.89;72.33;100965.41;1709790;83;21506;-75
2021/10/26 01:14:56;;;;;;;23.05;10.68;;;;;;;5.90;72.22;100961.81;1753363;80;21515;-75
2021/10/26 01:17:23;;;;;;;23.15;11.68;;;;;;;5.92;72.14;100958.54;1777620;80;21039;-75
2021/10/26 01:19:53;;;;;;;22.93;12.33;;;;;;;5.89;72.06;100956.16;1777618;80;21006;-75
2021/10/26 01:22:20;;;;;;;22.52;10.75;;;;;;;5.89;71.99;100957.47;1777785;80;21128;-75
2021/10/26 01:24:47;;;;;;;22.07;11.10;;;;;;;5.90;71.94;100964.45;1768029;80;21460;-75
2021/10/26 01:27:13;;;;;;;22.75;11.20;;;;;;;5.92;71.85;100966.48;1726271;82;21589;-75
2021/10/26 01:29:40;;;;;;;24.55;11.70;;;;;;;5.92;71.80;100969.97;1726260;83;21031;-75
2021/10/26 01:32:08;;;;;;;30.52;11.45;;;;;;;5.92;71.76;100965.16;1725917;83;21027;-75
2021/10/26 01:34:34;;;;;;;25.10;10.65;;;;;;;5.92;71.71;100966.00;1726396;82;21754;-75
2021/10/26 01:37:03;;;;;;;24.98;10.95;;;;;;;5.95;71.66;100968.87;1726162;82;21049;-75
2021/10/26 01:39:29;;;;;;;19.82;10.20;;;;;;;5.95;71.61;100964.90;1725508;83;21094;-76
2021/10/26 01:41:56;;;;;;;26.90;11.35;;;;;;;5.96;71.53;100961.30;1726373;82;21070;-76
2021/10/26 01:44:23;;;;;;;21.90;10.58;;;;;;;5.98;71.48;100959.37;1726245;82;21098;-75
2021/10/26 01:46:50;;;;;;;21.00;11.33;;;;;;;5.97;71.41;100973.09;1726446;82;21870;-75
2021/10/26 01:49:17;;;;;;;23.50;11.63;;;;;;;5.97;71.37;100966.95;1726125;82;21011;-75
2021/10/26 01:51:44;;;;;;;20.37;11.38;;;;;;;5.95;71.29;100959.61;1730961;82;21059;-75
2021/10/26 01:54:10;;;;;;;28.60;12.20;;;;;;;5.91;71.21;100962.98;1734243;81;21495;-75
2021/10/26 01:56:36;;;;;;;24.47;12.23;;;;;;;5.87;71.17;100962.06;1734101;81;21510;-75
2021/10/26 01:59:02;;;;;;;35.60;14.05;;;;;;;5.83;71.10;100961.92;1733963;82;21433;-75
2021/10/26 02:01:28;;;;;;;28.17;12.23;;;;;;;5.78;71.06;100957.48;1733767;82;21042;-75
2021/10/26 02:03:54;;;;;;;30.52;13.15;;;;;;;5.72;71.02;100949.57;1792081;80;21042;-75
2021/10/26 02:06:20;;;;;;;28.35;12.95;;;;;;;5.66;70.97;100950.55;1791843;80;21038;-75
2021/10/26 02:08:46;;;;;;;25.90;12.95;;;;;;;5.63;70.96;100952.13;1792010;80;21475;-75
2021/10/26 02:11:13;;;;;;;33.60;16.77;;;;;;;5.57;70.91;100953.93;1791672;80;22169;-75
2021/10/26 02:13:39;;;;;;;41.37;18.52;;;;;;;5.53;70.90;100958.63;1791860;80;21053;-75
2021/10/26 02:16:05;;;;;;;40.15;16.50;;;;;;;5.50;70.88;100957.56;1792177;80;20994;-75
2021/10/26 02:18:32;;;;;;;40.95;15.32;;;;;;;5.49;70.88;100961.16;1791915;80;21050;-75
2021/10/26 02:20:59;;;;;;;25.97;12.68;;;;;;;5.48;70.85;100957.70;1792197;80;20999;-75
2021/10/26 02:23:25;;;;;;;23.90;12.65;;;;;;;5.47;70.83;100956.01;1791803;80;21181;-75
2021/10/26 02:25:51;;;;;;;23.65;12.53;;;;;;;5.46;70.83;100949.03;1771900;80;21030;-75
2021/10/26 02:28:18;;;;;;;28.38;12.55;;;;;;;5.43;70.82;100950.60;1734589;82;21059;-75
2021/10/26 02:30:44;;;;;;;25.27;12.15;;;;;;;5.38;70.82;100944.83;1739476;82;21090;-75
2021/10/26 02:33:10;;;;;;;28.02;13.53;;;;;;;5.33;70.81;100935.59;1760803;81;21471;-75
2021/10/26 02:35:38;;;;;;;30.90;13.43;;;;;;;5.30;70.79;100939.81;1768705;81;21067;-75
2021/10/26 02:38:04;;;;;;;28.95;14.70;;;;;;;5.26;70.80;100931.29;1760539;81;20999;-75
2021/10/26 02:40:30;;;;;;;23.35;12.70;;;;;;;5.24;70.80;100939.81;1760250;81;21054;-75
2021/10/26 02:42:56;;;;;;;21.97;12.07;;;;;;;5.20;70.79;100937.08;1760558;81;20987;-75
2021/10/26 02:45:27;;;;;;;28.07;13.65;;;;;;;5.16;70.78;100939.59;1768708;81;21046;-75
2021/10/26 02:47:50;;;;;;;22.58;12.25;;;;;;;5.14;70.80;100934.90;1760021;80;21123;-75
2021/10/26 02:50:17;;;;;;;24.25;11.90;;;;;;;5.11;70.76;100936.47;1734023;82;21065;-75
2021/10/26 02:52:43;;;;;;;27.95;12.65;;;;;;;5.10;70.77;100940.58;1735183;82;21046;-75
2021/10/26 02:55:09;;;;;;;24.60;13.00;;;;;;;5.08;70.75;100934.07;1737486;82;21079;-75
2021/10/26 02:57:35;;;;;;;25.92;12.50;;;;;;;5.05;70.74;100934.31;1760480;81;21502;-76
2021/10/26 03:00:01;;;;;;;26.30;13.32;;;;;;;5.01;70.75;100935.52;1737735;82;21519;-76
2021/10/26 03:02:27;;;;;;;30.75;12.53;;;;;;;4.98;70.74;100941.05;1761125;81;21002;-76
2021/10/26 03:04:54;;;;;;;30.65;12.68;;;;;;;4.97;70.74;100942.00;1759587;81;21043;-75
2021/10/26 03:07:21;;;;;;;28.12;13.50;;;;;;;4.93;70.75;100936.59;1766918;81;21010;-75
2021/10/26 03:09:47;;;;;;;25.95;12.18;;;;;;;4.90;70.73;100939.00;1759359;81;21065;-76
2021/10/26 03:12:13;;;;;;;26.25;13.88;;;;;;;4.88;70.77;100941.41;1766873;81;21133;-76
2021/10/26 03:14:39;;;;;;;25.02;11.22;;;;;;;4.84;70.79;100942.14;1759148;81;21041;-76
2021/10/26 03:17:05;;;;;;;22.40;10.85;;;;;;;4.81;70.81;100934.93;1759449;81;20982;-76
2021/10/26 03:19:31;;;;;;;22.65;11.85;;;;;;;4.82;70.81;100931.34;1766981;81;21498;-76
2021/10/26 03:21:57;;;;;;;27.35;11.28;;;;;;;4.86;70.83;100930.11;1766859;81;21050;-76
2021/10/26 03:24:23;;;;;;;24.12;10.93;;;;;;;4.87;70.82;100937.93;1766860;81;21567;-76
2021/10/26 03:26:49;;;;;;;23.73;10.93;;;;;;;4.89;70.82;100938.63;1759290;81;21062;-75
2021/10/26 03:29:15;;;;;;;23.65;11.80;;;;;;;4.91;70.84;100941.17;1760615;81;21034;-75
2021/10/26 03:31:42;;;;;;;22.37;11.20;;;;;;;4.94;70.84;100952.82;1721404;82;21090;-76
2021/10/26 03:34:08;;;;;;;20.20;11.10;;;;;;;4.96;70.85;100952.23;1737694;82;21025;-75
2021/10/26 03:36:34;;;;;;;27.80;13.30;;;;;;;4.99;70.85;100953.31;1706910;84;21147;-75
2021/10/26 03:39:01;;;;;;;28.17;13.45;;;;;;;5.01;70.83;100952.70;1737578;82;20976;-75
2021/10/26 03:41:27;;;;;;;26.17;12.10;;;;;;;5.03;70.83;100948.15;1706527;84;21492;-75
2021/10/26 03:43:54;;;;;;;22.13;11.40;;;;;;;5.06;70.84;100947.06;1738005;82;21071;-75
2021/10/26 03:46:19;;;;;;;23.67;10.43;;;;;;;5.08;70.80;100943.33;1737605;82;21001;-75
2021/10/26 03:48:46;;;;;;;20.95;11.12;;;;;;;5.10;70.80;100946.70;1707152;84;21149;-75
2021/10/26 03:51:12;;;;;;;25.97;11.33;;;;;;;5.12;70.78;100946.09;1749439;81;21069;-75
2021/10/26 03:53:38;;;;;;;25.27;12.28;;;;;;;5.13;70.78;100947.78;1764031;81;21026;-75
2021/10/26 03:56:04;;;;;;;20.27;11.03;;;;;;;5.14;70.75;100950.76;1764410;81;21003;-75
2021/10/26 03:58:31;;;;;;;27.30;11.05;;;;;;;5.15;70.74;100949.80;1764380;81;20998;-76
2021/10/26 04:00:57;;;;;;;22.02;11.65;;;;;;;5.18;70.72;100946.91;1764707;81;21060;-75
2021/10/26 04:03:24;;;;;;;26.27;11.50;;;;;;;5.19;70.71;100951.25;1764478;81;21455;-75
2021/10/26 04:05:59;;;;;;;26.97;11.25;;;;;;;5.20;70.71;100935.75;1764658;81;21026;-76
2021/10/26 04:08:32;;;;;;;24.95;10.90;;;;;;;5.24;70.70;100935.03;1762666;81;21519;-75
2021/10/26 04:10:54;;;;;;;24.20;10.10;;;;;;;5.26;70.68;100935.25;1763114;81;21395;-75
2021/10/26 04:13:22;;;;;;;19.90;10.13;;;;;;;5.30;70.66;100938.02;1764757;81;21863;-75
2021/10/26 04:15:49;;;;;;;22.37;10.25;;;;;;;5.36;70.67;100937.52;1764350;81;21046;-76
2021/10/26 04:18:15;;;;;;;25.85;11.15;;;;;;;5.44;70.66;100939.55;1764671;81;22271;-76
2021/10/26 04:20:41;;;;;;;23.55;10.10;;;;;;;5.49;70.64;100936.88;1764376;81;20995;-76
2021/10/26 04:23:07;;;;;;;23.05;10.10;;;;;;;5.54;70.60;100937.36;1764437;81;21070;-76
2021/10/26 04:25:34;;;;;;;23.67;10.50;;;;;;;5.58;70.58;100934.45;1764514;81;21025;-76
2021/10/26 04:28:00;;;;;;;19.23;9.88;;;;;;;5.60;70.57;100930.71;1764475;81;21042;-76
2021/10/26 04:30:27;;;;;;;21.48;10.25;;;;;;;5.60;70.54;100935.16;1764621;81;21465;-76
2021/10/26 04:32:53;;;;;;;24.43;10.85;;;;;;;5.60;70.49;100936.00;1763909;81;21075;-76
2021/10/26 04:35:19;;;;;;;19.67;9.98;;;;;;;5.59;70.49;100934.83;1764707;81;21023;-76
2021/10/26 04:37:46;;;;;;;18.32;10.08;;;;;;;5.56;70.46;100935.08;1756554;81;21131;-76
2021/10/26 04:40:12;;;;;;;21.30;10.30;;;;;;;5.53;70.44;100934.34;1754755;81;21086;-76
2021/10/26 04:42:38;;;;;;;22.52;11.85;;;;;;;5.52;70.40;100932.66;1754841;81;21038;-76
2021/10/26 04:45:05;;;;;;;29.23;12.15;;;;;;;5.52;70.36;100936.62;1759048;81;21142;-76
2021/10/26 04:47:31;;;;;;;39.10;12.85;;;;;;;5.51;70.32;100933.64;1764376;81;21010;-75
2021/10/26 04:49:57;;;;;;;30.17;10.82;;;;;;;5.52;70.29;100934.48;1762240;81;21152;-76
2021/10/26 04:52:24;;;;;;;22.80;10.40;;;;;;;5.51;70.26;100940.25;1764200;81;21507;-75
2021/10/26 04:54:50;;;;;;;26.57;9.83;;;;;;;5.51;70.25;100938.94;1763880;81;21018;-75
2021/10/26 04:57:17;;;;;;;21.20;9.58;;;;;;;5.50;70.20;100935.92;1764516;81;21483;-75
2021/10/26 04:59:43;;;;;;;18.52;8.20;;;;;;;5.48;70.20;100935.22;1792268;80;21006;-75
2021/10/26 05:02:09;;;;;;;18.17;8.68;;;;;;;5.50;70.19;100940.36;1791937;80;21136;-75
2021/10/26 05:04:35;;;;;;;21.23;9.15;;;;;;;5.50;70.17;100933.75;1791986;80;21053;-75
2021/10/26 05:07:01;;;;;;;21.00;8.43;;;;;;;5.51;70.16;100931.00;1791622;79;20875;-75
2021/10/26 05:09:27;;;;;;;17.90;8.20;;;;;;;5.51;70.14;100934.97;1792041;80;21487;-75
2021/10/26 05:11:53;;;;;;;16.55;8.68;;;;;;;5.51;70.14;100933.64;1792170;80;21022;-75
2021/10/26 05:14:20;;;;;;;18.73;8.43;;;;;;;5.54;70.12;100920.64;1792092;80;20995;-75
2021/10/26 05:16:46;;;;;;;19.00;8.90;;;;;;;5.59;70.11;100926.89;1791690;79;21482;-75
2021/10/26 05:19:13;;;;;;;15.03;7.50;;;;;;;5.60;70.08;100928.55;1791494;80;21026;-75
2021/10/26 05:21:39;;;;;;;16.93;8.33;;;;;;;5.63;70.07;100928.32;1791848;80;21534;-75
2021/10/26 05:24:05;;;;;;;21.02;8.75;;;;;;;5.67;70.04;100935.02;1734379;82;21069;-75
2021/10/26 05:26:34;;;;;;;18.90;9.20;;;;;;;5.67;69.98;100937.66;1794494;80;21539;-76
2021/10/26 05:29:00;;;;;;;15.90;8.23;;;;;;;5.67;69.97;100932.37;1794681;80;20987;-76
2021/10/26 05:31:27;;;;;;;17.42;10.15;;;;;;;5.68;69.95;100931.41;1795279;80;21023;-76
2021/10/26 05:33:53;;;;;;;17.87;10.05;;;;;;;5.66;69.91;100931.56;1761310;80;21093;-76
2021/10/26 05:36:20;;;;;;;45.05;18.40;;;;;;;5.64;69.87;100935.27;1779251;80;21054;-76
2021/10/26 05:38:46;;;;;;;92.08;34.75;;;;;;;5.60;69.86;100928.55;1779435;80;21139;-76
2021/10/26 05:41:12;;;;;;;78.92;26.70;;;;;;;5.57;69.85;100932.29;1779215;80;21048;-76
2021/10/26 05:43:39;;;;;;;28.30;11.08;;;;;;;5.56;69.83;100929.79;1783641;80;21451;-75
2021/10/26 05:46:05;;;;;;;25.08;10.25;;;;;;;5.56;69.83;100935.08;1791552;80;21086;-75
2021/10/26 05:48:32;;;;;;;28.30;10.58;;;;;;;5.55;69.82;100923.66;1778236;80;21054;-75
2021/10/26 05:51:01;;;;;;;27.55;10.38;;;;;;;5.53;69.79;100930.38;1762721;80;21137;-75
2021/10/26 05:53:28;;;;;;;26.68;9.28;;;;;;;5.51;69.80;100933.64;1765128;80;20976;-75
2021/10/26 05:55:54;;;;;;;26.68;8.50;;;;;;;5.53;69.79;100946.73;1759354;80;21880;-74
2021/10/26 05:58:20;;;;;;;26.07;9.20;;;;;;;5.51;69.80;100942.90;1756027;80;21048;-75
2021/10/26 06:00:46;;;;;;;21.48;8.65;;;;;;;5.53;69.79;100943.60;1770242;80;21011;-75
2021/10/26 06:03:12;;;;;;;29.92;10.63;;;;;;;5.53;69.79;100949.37;1774032;80;21461;-75
2021/10/26 06:05:38;;;;;;;28.45;12.33;;;;;;;5.52;69.79;100940.59;1731960;82;21026;-75
2021/10/26 06:08:07;;;;;;;27.17;11.83;;;;;;;5.54;69.77;100948.41;1762211;81;21070;-75
2021/10/26 06:10:52;;;;;;;66.35;24.57;;;;;;;5.52;69.74;100945.87;1761444;81;21054;-75
2021/10/26 06:13:09;;;;;;;79.97;29.07;;;;;;;5.50;69.74;100945.17;1773375;80;21101;-75
2021/10/26 06:15:31;;;;;;;44.38;14.80;;;;;;;5.49;69.71;100950.58;1731256;82;22062;-76
2021/10/26 06:17:57;;;;;;;24.72;9.98;;;;;;;5.48;69.71;100949.77;1762021;81;21684;-75
2021/10/26 06:20:23;;;;;;;25.20;11.22;;;;;;;5.48;69.70;100961.67;1774684;80;20876;-76
2021/10/26 06:22:49;;;;;;;27.50;10.72;;;;;;;5.49;69.70;100960.69;1757728;81;20987;-75
2021/10/26 06:25:15;;;;;;;25.45;12.10;;;;;;;5.52;69.70;100960.94;1771558;80;20995;-75
2021/10/26 06:27:41;;;;;;;61.48;25.72;;;;;;;5.50;69.66;100955.76;1731747;82;21103;-75
2021/10/26 06:30:08;;;;;;;77.72;28.73;;;;;;;5.51;69.67;100964.06;1762296;81;20983;-76
2021/10/26 06:32:34;;;;;;;97.90;39.98;;;;;;;5.51;69.69;100962.73;1775784;80;22133;-76
2021/10/26 06:35:00;;;;;;;50.12;23.12;;;;;;;5.52;69.70;100961.75;1775872;80;21060;-75
2021/10/26 06:37:26;;;;;;;46.63;22.48;;;;;;;5.52;69.68;100961.75;1775852;80;20976;-75
2021/10/26 06:39:55;;;;;;;30.90;16.48;;;;;;;5.59;69.68;100975.83;1775694;80;21803;-75
2021/10/26 06:42:20;;;;;;;39.70;17.77;;;;;;;5.71;69.68;100976.14;1764843;80;21031;-75
2021/10/26 06:44:46;;;;;;;31.37;14.47;;;;;;;5.85;69.66;100970.09;1757703;81;21014;-75
2021/10/26 06:47:14;;;;;;;23.32;10.60;;;;;;;5.95;69.68;100976.81;1759985;80;21002;-75
2021/10/26 06:49:40;;;;;;;28.45;12.37;;;;;;;5.97;69.68;100981.52;1764969;80;21031;-75
2021/10/26 06:52:07;;;;;;;33.63;15.18;;;;;;;5.99;69.68;100980.89;1767216;80;21015;-75
2021/10/26 06:54:34;;;;;;;27.20;12.95;;;;;;;5.99;69.67;100980.89;1757760;80;21031;-75
2021/10/26 06:57:00;;;;;;;32.75;15.70;;;;;;;6.00;69.67;100978.61;1726111;82;20995;-75
2021/10/26 06:59:26;;;;;;;24.37;12.65;;;;;;;6.03;69.67;100990.27;1742963;80;21000;-74
2021/10/26 07:01:52;;;;;;;28.00;11.30;;;;;;;6.08;69.64;100989.42;1765440;80;21087;-75
2021/10/26 07:04:19;;;;;;;31.45;13.30;;;;;;;6.14;69.63;100983.61;1769193;80;21577;-75
2021/10/26 07:06:45;;;;;;;24.87;13.08;;;;;;;6.18;69.63;100986.36;1762696;80;21570;-75
2021/10/26 07:09:11;;;;;;;43.10;18.82;;;;;;;6.21;69.59;100978.64;1776845;80;21021;-75
2021/10/26 07:11:37;;;;;;;59.60;26.73;;;;;;;6.23;69.59;100982.83;1730108;82;21054;-75
2021/10/26 07:14:03;;;;;;;53.25;17.52;;;;;;;6.27;69.55;100981.61;1761672;81;21042;-75
2021/10/26 07:16:29;;;;;;;20.50;9.88;;;;;;;6.38;69.55;100982.88;1776767;80;21158;-75
2021/10/26 07:18:57;;;;;;;18.17;9.40;;;;;;;6.59;69.50;100982.03;1759823;80;21673;-75
2021/10/26 07:21:23;;;;;;;20.60;9.98;;;;;;;6.85;69.48;100983.31;1760498;80;21002;-75
2021/10/26 07:23:49;;;;;;;19.32;9.80;;;;;;;7.10;69.42;100984.20;1713580;83;21054;-75
2021/10/26 07:26:15;;;;;;;30.17;13.85;;;;;;;7.34;69.36;100988.69;1715596;83;21023;-75
2021/10/26 07:28:41;;;;;;;23.22;11.78;;;;;;;7.58;69.31;101003.41;1716370;83;21562;-75
2021/10/26 07:31:07;;;;;;;28.35;12.88;;;;;;;7.73;69.24;100998.08;1764493;80;21014;-75
2021/10/26 07:33:35;;;;;;;25.57;12.95;;;;;;;7.84;69.17;100997.48;1761112;80;21050;-75
2021/10/26 07:36:04;;;;;;;24.90;11.90;;;;;;;7.97;69.10;100998.53;1750526;80;21022;-75
2021/10/26 07:38:31;;;;;;;26.50;11.55;;;;;;;8.09;69.00;101001.42;1766803;80;21471;-75
2021/10/26 07:40:57;;;;;;;21.62;10.68;;;;;;;8.23;68.86;100996.17;1777436;80;21093;-75
2021/10/26 07:43:24;;;;;;;19.12;10.50;;;;;;;8.30;68.74;100995.47;1765540;80;21129;-76
2021/10/26 07:45:50;;;;;;;20.48;8.05;;;;;;;8.40;68.66;100993.67;1773271;80;21368;-75
2021/10/26 07:48:16;;;;;;;20.57;9.98;;;;;;;8.51;68.51;100991.36;1777346;80;21020;-75
2021/10/26 07:50:43;;;;;;;29.55;12.33;;;;;;;8.62;68.35;100996.49;1769317;80;21014;-76
2021/10/26 07:53:10;;;;;;;20.43;10.32;;;;;;;8.71;68.23;100987.67;1762838;79;21348;-76
2021/10/26 07:55:37;;;;;;;16.95;9.58;;;;;;;8.81;68.10;100983.66;1715725;81;21065;-76
2021/10/26 07:58:03;;;;;;;17.52;9.35;;;;;;;8.92;67.98;100975.02;1729182;82;21034;-76
2021/10/26 08:00:29;;;;;;;20.00;8.28;;;;;;;9.06;67.84;100968.38;1749067;81;21058;-76
2021/10/26 08:02:55;;;;;;;14.40;8.68;;;;;;;9.19;67.66;100970.70;1761960;80;21102;-76
2021/10/26 08:05:21;;;;;;;16.87;8.58;;;;;;;9.32;67.51;100974.69;1765780;80;21203;-76
2021/10/26 08:07:48;;;;;;;16.82;8.23;;;;;;;9.44;67.40;100978.84;1735113;81;21545;-76
2021/10/26 08:10:14;;;;;;;14.47;8.03;;;;;;;9.57;67.22;100977.67;1767586;80;21019;-76
2021/10/26 08:12:41;;;;;;;20.52;9.90;;;;;;;9.66;67.07;100978.09;1776196;80;21499;-76
2021/10/26 08:15:07;;;;;;;20.20;8.60;;;;;;;9.76;66.94;100980.20;1731201;82;20984;-76
2021/10/26 08:17:33;;;;;;;17.60;8.75;;;;;;;9.86;66.83;100980.96;1754470;81;21128;-76
2021/10/26 08:20:00;;;;;;;20.80;9.35;;;;;;;10.02;66.65;100996.64;1731312;82;21050;-76
2021/10/26 08:22:27;;;;;;;21.90;9.30;;;;;;;10.17;66.52;100994.81;1771986;80;21031;-76
2021/10/26 08:24:57;;;;;;;16.52;7.37;;;;;;;10.28;66.39;100995.39;1771666;80;21052;-76
2021/10/26 08:27:21;;;;;;;16.50;9.10;;;;;;;10.31;66.19;100995.08;1774058;80;21031;-76
2021/10/26 08:30:06;;;;;;;14.90;8.18;;;;;;;10.26;66.07;100997.88;1729749;81;21129;-76
2021/10/26 08:32:43;;;;;;;15.05;9.35;;;;;;;10.27;65.99;100999.07;1768555;80;20992;-76
2021/10/26 08:37:51;;;;;;;19.32;9.13;;;;;;;10.33;65.75;100990.45;1717973;81;21053;-75
2021/10/26 08:40:18;;;;;;;15.48;8.60;;;;;;;10.17;65.65;101000.95;1743240;81;21639;-77
2021/10/26 08:42:49;;;;;;;19.23;9.25;;;;;;;10.03;65.57;101000.95;1753234;81;21298;-77
2021/10/26 08:45:21;;;;;;;19.02;8.68;;;;;;;9.98;65.54;101001.92;1749488;81;21047;-77
2021/10/26 08:47:47;;;;;;;15.00;8.68;;;;;;;9.98;65.55;101003.75;1750599;81;21058;-77
2021/10/26 08:50:14;;;;;;;21.30;10.63;;;;;;;9.99;65.50;101003.58;1749993;81;21024;-77
2021/10/26 08:52:42;;;;;;;13.93;8.85;;;;;;;10.00;65.48;100992.42;1745256;80;21066;-76
2021/10/26 08:55:09;;;;;;;18.65;9.53;;;;;;;10.05;65.43;100999.48;1760061;79;21854;-76
2021/10/26 08:57:38;;;;;;;18.48;9.38;;;;;;;10.14;65.44;100997.72;1770557;79;21486;-77
2021/10/26 09:00:06;;;;;;;18.77;8.23;;;;;;;10.23;65.44;101000.36;1762163;80;21050;-77
2021/10/26 09:02:43;;;;;;;21.57;10.28;;;;;;;10.35;65.43;101001.78;1723702;81;21494;-77
2021/10/26 09:05:18;;;;;;;14.45;7.28;;;;;;;10.57;65.42;100996.95;1739051;80;21091;-77
2021/10/26 09:08:07;;;;;;;21.07;8.40;;;;;;;10.77;65.40;100994.42;1753707;80;21405;-77
2021/10/26 09:10:36;;;;;;;15.10;7.00;;;;;;;10.97;65.33;100996.76;1749948;81;21537;-76
2021/10/26 09:18:41;;;;;;;15.05;6.67;;;;;;;11.69;64.95;100989.20;1758507;81;21058;-77
2021/10/26 09:21:25;;;;;;;15.30;6.45;;;;;;;11.67;64.77;100993.39;1741044;82;21136;-77
2021/10/26 09:23:55;;;;;;;15.13;7.58;;;;;;;11.84;64.74;100995.64;1704470;82;21041;-77
2021/10/26 09:26:20;;;;;;;10.13;5.67;;;;;;;12.02;64.56;100996.34;1764451;81;21539;-77
2021/10/26 09:28:54;;;;;;;10.23;6.35;;;;;;;12.07;64.35;100998.02;1767134;81;21089;-77
2021/10/26 09:31:29;;;;;;;16.35;7.53;;;;;;;12.13;64.20;100993.36;1761539;81;21064;-78
2021/10/26 09:34:03;;;;;;;13.40;6.22;;;;;;;12.14;63.95;100998.22;1797983;79;21066;-77
2021/10/26 09:36:32;;;;;;;16.93;8.03;;;;;;;12.14;63.78;100988.33;1802633;79;21021;-77
2021/10/26 09:39:10;;;;;;;11.70;5.78;;;;;;;12.22;63.67;100988.84;1802191;79;21069;-77
2021/10/26 09:41:53;;;;;;;13.08;5.85;;;;;;;12.07;63.31;100989.98;1798599;79;21648;-75
2021/10/26 09:44:24;;;;;;;12.58;6.55;;;;;;;11.95;63.21;100990.83;1800503;79;21065;-75
2021/10/26 09:46:52;;;;;;;15.43;7.50;;;;;;;12.04;63.16;100979.63;1798395;79;21156;-75
2021/10/26 09:49:33;;;;;;;11.43;6.60;;;;;;;12.22;63.04;100993.69;1798147;79;21042;-76
2021/10/26 09:52:13;;;;;;;11.25;6.50;;;;;;;12.39;62.90;100994.03;1794856;79;21572;-76
2021/10/26 09:54:41;;;;;;;11.88;5.97;;;;;;;12.39;62.64;100991.36;1793040;79;21031;-76
2021/10/26 09:57:11;;;;;;;11.35;6.55;;;;;;;12.34;62.51;100992.87;1768384;81;21589;-76
2021/10/26 09:59:47;;;;;;;;;;;;;;;12.29;62.46;100988.02;1771447;81;21163;-76
2021/10/26 10:02:18;;;;;;;14.23;8.18;;;;;;;12.21;62.34;100993.34;1771542;79;20148;-76
2021/10/26 10:04:44;;;;;;;15.93;10.40;;;;;;;12.16;62.29;100997.04;1793960;79;21050;-76
2021/10/26 10:07:10;;;;;;;16.10;9.00;;;;;;;12.16;62.29;100997.53;1794158;79;21487;-76
2021/10/26 10:09:36;;;;;;;12.30;6.90;;;;;;;12.16;62.27;100994.36;1793934;79;20990;-76
2021/10/26 10:12:05;;;;;;;14.05;8.35;;;;;;;12.13;62.22;100988.02;1794504;80;21125;-76
2021/10/26 10:14:37;;;;;;;12.50;7.60;;;;;;;12.10;62.24;100988.84;1792979;79;21498;-76
2021/10/26 10:17:11;;;;;;;12.47;6.70;;;;;;;12.08;62.24;100987.66;1742832;82;21077;-76
2021/10/26 10:19:37;;;;;;;12.15;5.72;;;;;;;12.03;62.20;100994.02;1744274;81;21017;-75
2021/10/26 10:22:07;;;;;;;10.15;6.28;;;;;;;11.91;62.18;100996.66;1728715;79;21056;-76
2021/10/26 10:24:43;;;;;;;13.78;7.47;;;;;;;11.78;62.18;100998.97;1794307;79;20987;-75
2021/10/26 10:27:07;;;;;;;11.35;6.37;;;;;;;11.66;62.23;100994.39;1730678;81;20983;-76
2021/10/26 10:29:35;;;;;;;13.48;6.85;;;;;;;11.59;62.26;100988.52;1768486;81;21720;-77
2021/10/26 10:32:02;;;;;;;10.58;6.10;;;;;;;11.61;62.33;100987.88;1769119;80;21038;-76
2021/10/26 10:34:28;;;;;;;9.18;6.58;;;;;;;11.65;62.37;100985.19;1771304;80;21061;-79
2021/10/26 10:36:54;;;;;;;26.95;14.60;;;;;;;11.71;62.42;100988.59;1769523;80;21510;-79
2021/10/26 10:39:27;;;;;;;20.17;9.20;;;;;;;11.80;62.46;100982.26;1772414;80;21462;-79
2021/10/26 10:41:48;;;;;;;17.60;8.55;;;;;;;11.93;62.45;100982.61;1771433;80;20983;-79
2021/10/26 10:44:28;;;;;;;15.83;7.92;;;;;;;11.98;62.49;100978.96;1771008;80;21464;-79
2021/10/26 10:47:00;;;;;;;16.62;7.90;;;;;;;12.10;62.53;100988.84;1780157;79;21121;-79
2021/10/26 10:49:36;;;;;;;14.25;7.37;;;;;;;12.22;62.54;100987.01;1793659;80;21906;-79
2021/10/26 10:52:09;;;;;;;13.15;7.30;;;;;;;12.30;62.49;100985.69;1784940;79;21050;-79
2021/10/26 10:54:53;;;;;;;13.83;7.78;;;;;;;12.31;62.44;100982.02;1780785;79;21007;-79
2021/10/26 10:57:30;;;;;;;16.15;6.72;;;;;;;12.33;62.44;100983.17;1790697;80;21003;-79
2021/10/26 10:59:59;;;;;;;11.33;7.00;;;;;;;12.41;62.44;100984.02;1776348;80;21121;-79
2021/10/26 11:02:36;;;;;;;11.63;7.03;;;;;;;12.49;62.42;100984.49;1730656;82;21912;-79
2021/10/26 11:05:04;;;;;;;18.92;7.33;;;;;;;12.51;62.31;100985.18;1734262;80;22210;-79
2021/10/26 11:07:49;;;;;;;11.53;7.25;;;;;;;12.41;62.25;100986.70;1784810;80;21050;-79
2021/10/26 11:10:16;;;;;;;17.15;8.28;;;;;;;12.33;62.24;100985.34;1786558;79;21102;-79
2021/10/26 11:12:46;;;;;;;12.03;7.62;;;;;;;12.29;62.25;100986.67;1772987;79;21085;-79
2021/10/26 11:15:23;;;;;;;18.90;8.28;;;;;;;12.43;62.31;100990.02;1771726;80;21115;-79
2021/10/26 11:17:51;;;;;;;15.10;8.43;;;;;;;12.70;62.30;100985.34;1732095;80;21077;-79
2021/10/26 11:20:31;;;;;;;15.18;7.15;;;;;;;12.96;62.25;100981.43;1788776;79;21066;-79
2021/10/26 11:23:05;;;;;;;16.85;7.42;;;;;;;13.00;62.16;100986.78;1769544;80;21058;-79
2021/10/26 11:25:39;;;;;;;11.15;6.50;;;;;;;12.92;62.09;100984.61;1785883;80;21526;-79
2021/10/26 11:28:24;;;;;;;13.18;7.10;;;;;;;12.96;62.14;100984.61;1793428;79;21502;-80
2021/10/26 11:30:52;;;;;;;10.08;7.33;;;;;;;13.10;62.19;100993.80;1788739;80;21050;-79